Time;durP1;ratioP1;P1;durP2;ratioP2;P2;SDS_P1;SDS_P2;PMS_P1;PMS_P2;Temp;Humidity;BMP_temperature;BMP_pressure;BME280_temperature;BME280_humidity;BME280_pressure;Samples;Min_cycle;Max_cycle;Signal;HPM_P1;HPM_P2
2022/11/01 00:09:41;;;;;;;37.70;21.70;;;;;;;7.37;100.00;99767.83;420236;1281;146049;-67
2022/11/01 00:19:47;;;;;;;44.30;21.90;;;;;;;7.36;100.00;99772.58;419841;1281;142174;-68
2022/11/01 00:29:52;;;;;;;33.80;19.90;;;;;;;7.37;100.00;99766.59;421571;1288;143030;-67
2022/11/01 00:39:58;;;;;;;32.60;21.90;;;;;;;7.38;100.00;99760.08;420502;1282;143302;-67
2022/11/01 00:50:05;;;;;;;36.10;21.60;;;;;;;7.38;100.00;99750.67;421137;1282;143414;-67
2022/11/01 01:00:14;;;;;;;29.80;20.50;;;;;;;7.39;100.00;99740.55;419999;1278;180655;-67
2022/11/01 01:10:20;;;;;;;38.30;19.60;;;;;;;7.37;100.00;99735.73;420213;1282;142464;-67
2022/11/01 01:20:26;;;;;;;33.00;20.30;;;;;;;7.35;100.00;99723.50;419678;1281;143368;-67
2022/11/01 01:30:32;;;;;;;27.00;19.20;;;;;;;7.33;100.00;99706.54;421067;1281;144399;-67
2022/11/01 01:40:38;;;;;;;27.50;19.10;;;;;;;7.33;100.00;99709.48;420335;1281;143748;-67
2022/11/01 01:50:48;;;;;;;21.50;16.50;;;;;;;7.32;100.00;99689.85;420231;1280;143848;-68
2022/11/01 02:00:54;;;;;;;26.00;16.70;;;;;;;7.23;100.00;99680.52;419859;1278;143185;-66
2022/11/01 02:11:03;;;;;;;25.20;17.50;;;;;;;7.19;100.00;99685.97;421165;1281;142860;-68
2022/11/01 02:21:28;;;;;;;19.00;16.90;;;;;;;7.16;100.00;99683.13;420524;1281;142622;-69
2022/11/01 02:31:48;;;;;;;22.10;19.70;;;;;;;7.16;100.00;99683.31;420442;1285;146711;-67
2022/11/01 02:42:02;;;;;;;24.00;19.10;;;;;;;7.15;100.00;99670.66;421847;1283;143651;-67
2022/11/01 02:52:11;;;;;;;21.70;19.20;;;;;;;7.12;100.00;99659.48;420547;1274;142469;-67
2022/11/01 03:02:38;;;;;;;24.00;19.60;;;;;;;7.10;100.00;99654.89;420354;1281;144211;-66
2022/11/01 03:12:57;;;;;;;19.70;17.60;;;;;;;7.09;100.00;99644.62;422076;1282;212300;-68
2022/11/01 03:23:05;;;;;;;22.10;19.60;;;;;;;7.12;100.00;99650.60;420186;1281;142172;-66
2022/11/01 03:33:13;;;;;;;25.90;19.50;;;;;;;7.13;100.00;99645.32;419351;1281;142954;-66
2022/11/01 03:43:21;;;;;;;27.30;19.90;;;;;;;7.13;100.00;99641.65;421894;1275;143458;-67
2022/11/01 03:53:27;;;;;;;28.60;23.00;;;;;;;7.14;100.00;99636.02;420600;1275;142202;-67
2022/11/01 04:03:33;;;;;;;26.60;22.30;;;;;;;7.13;100.00;99628.25;420612;1281;143403;-67
2022/11/01 04:13:39;;;;;;;27.50;23.90;;;;;;;7.09;100.00;99630.17;420127;1275;143942;-66
2022/11/01 04:23:46;;;;;;;27.40;21.00;;;;;;;7.09;100.00;99626.18;420297;1281;142617;-68
2022/11/01 04:33:52;;;;;;;26.80;23.10;;;;;;;7.06;100.00;99620.93;420566;1281;145340;-67
2022/11/01 04:43:58;;;;;;;27.70;21.70;;;;;;;7.01;100.00;99597.52;419644;1281;142842;-66
2022/11/01 04:54:04;;;;;;;26.60;22.80;;;;;;;6.97;100.00;99577.35;419419;1281;146826;-66
2022/11/01 05:04:10;;;;;;;26.50;21.80;;;;;;;6.93;100.00;99563.10;421193;1278;142550;-66
2022/11/01 05:14:16;;;;;;;24.10;20.50;;;;;;;6.92;100.00;99561.23;419861;1286;142420;-66
2022/11/01 05:24:22;;;;;;;22.70;18.70;;;;;;;6.87;100.00;99553.66;420722;1285;142943;-65
2022/11/01 05:34:28;;;;;;;21.80;18.60;;;;;;;6.79;100.00;99555.40;420746;1287;146214;-66
2022/11/01 05:44:34;;;;;;;20.20;18.00;;;;;;;6.73;100.00;99554.47;419962;1280;184430;-67
2022/11/01 05:54:40;;;;;;;20.00;17.80;;;;;;;6.80;100.00;99562.17;420358;1281;145517;-66
2022/11/01 06:04:45;;;;;;;21.40;19.20;;;;;;;6.95;100.00;99559.71;419826;1288;142269;-66
2022/11/01 06:14:51;;;;;;;22.50;18.70;;;;;;;7.15;100.00;99575.27;419242;1283;143586;-68
2022/11/01 06:24:57;;;;;;;25.10;21.80;;;;;;;7.30;100.00;99580.58;421068;1281;142814;-67
2022/11/01 06:35:04;;;;;;;26.30;21.40;;;;;;;7.57;100.00;99587.94;420418;1281;142099;-67
2022/11/01 06:45:11;;;;;;;28.00;21.40;;;;;;;7.90;100.00;99605.41;419331;1274;189023;-67
2022/11/01 06:55:16;;;;;;;25.40;22.20;;;;;;;8.36;100.00;99617.27;421255;1275;144836;-66
2022/11/01 07:05:22;;;;;;;26.40;21.70;;;;;;;8.69;100.00;99630.67;420204;1281;144728;-66
2022/11/01 07:15:29;;;;;;;26.30;21.90;;;;;;;9.26;100.00;99638.14;419921;1281;200713;-66
2022/11/01 07:25:35;;;;;;;24.60;22.00;;;;;;;10.02;100.00;99619.71;419907;1281;144514;-66
2022/11/01 07:35:41;;;;;;;23.50;21.00;;;;;;;11.53;100.00;99605.00;421253;1281;142933;-68
2022/11/01 07:45:47;;;;;;;22.00;19.90;;;;;;;13.11;99.31;99600.13;426712;1291;143792;-66
2022/11/01 07:55:53;;;;;;;22.00;19.70;;;;;;;13.35;97.35;99597.11;436191;1284;145474;-67
2022/11/01 08:05:58;;;;;;;24.30;21.50;;;;;;;13.82;95.32;99603.46;429209;1281;142253;-68
2022/11/01 08:16:05;;;;;;;24.80;20.90;;;;;;;13.65;93.81;99583.44;428507;1282;142106;-65
2022/11/01 08:26:11;;;;;;;22.40;20.10;;;;;;;14.09;92.30;99558.20;425326;1281;143945;-67
2022/11/01 08:36:17;;;;;;;23.40;21.10;;;;;;;14.84;90.52;99543.95;420836;1281;144507;-66
2022/11/01 08:46:23;;;;;;;23.10;20.30;;;;;;;14.69;89.37;99560.89;420901;1280;142405;-67
2022/11/01 08:56:29;;;;;;;24.20;21.70;;;;;;;14.07;88.92;99573.53;423983;1275;152618;-67
2022/11/01 09:06:35;;;;;;;27.00;24.00;;;;;;;13.59;89.51;99572.25;434338;1275;143873;-66
2022/11/01 09:16:41;;;;;;;28.00;24.70;;;;;;;13.22;90.07;99577.85;419720;1280;143731;-66
2022/11/01 09:26:47;;;;;;;32.20;28.00;;;;;;;13.17;90.63;99583.16;418981;1274;143648;-67
2022/11/01 09:36:53;;;;;;;31.50;28.20;;;;;;;12.81;90.57;99573.48;420386;1275;147492;-67
2022/11/01 09:47:03;;;;;;;32.00;27.80;;;;;;;12.54;91.11;99566.34;419328;1277;147754;-67
2022/11/01 09:57:18;;;;;;;33.40;28.20;;;;;;;12.38;91.75;99566.59;418749;1278;143046;-68
2022/11/01 10:07:32;;;;;;;33.90;30.10;;;;;;;12.51;92.46;99568.11;419966;1284;142973;-67
2022/11/01 10:17:50;;;;;;;38.00;33.80;;;;;;;12.62;92.07;99563.10;419058;1277;142477;-68
2022/11/01 10:28:05;;;;;;;33.20;28.70;;;;;;;12.52;90.99;99555.95;420782;1282;141845;-68
2022/11/01 10:38:17;;;;;;;32.70;27.90;;;;;;;12.21;90.83;99549.13;419992;1275;144252;-68
2022/11/01 10:48:48;;;;;;;37.20;31.90;;;;;;;11.76;90.74;99536.14;420042;1274;145204;-68
2022/11/01 10:59:01;;;;;;;34.20;29.80;;;;;;;11.35;91.03;99529.09;420848;1283;142675;-68
2022/11/01 11:09:17;;;;;;;33.20;29.60;;;;;;;11.34;91.70;99519.58;419909;1281;144823;-69
2022/11/01 11:19:32;;;;;;;32.40;27.90;;;;;;;11.44;91.76;99525.72;421410;1275;144520;-68
2022/11/01 11:29:47;;;;;;;35.30;30.60;;;;;;;11.07;91.19;99529.77;420368;1274;143418;-69
2022/11/01 11:40:19;;;;;;;38.10;30.80;;;;;;;10.58;92.15;99534.89;420213;1278;142629;-70
2022/11/01 11:50:31;;;;;;;38.50;31.40;;;;;;;10.28;93.08;99529.97;420903;1275;143749;-69
2022/11/01 12:00:47;;;;;;;41.90;34.10;;;;;;;10.17;94.18;99514.16;419832;1278;211486;-69
2022/11/01 12:10:58;;;;;;;40.10;31.50;;;;;;;10.18;94.79;99509.59;420151;1282;144868;-69
2022/11/01 12:21:05;;;;;;;28.50;21.50;;;;;;;10.19;94.57;99515.83;419589;1284;143405;-69
2022/11/01 12:31:15;;;;;;;29.40;21.80;;;;;;;10.08;94.51;99512.45;420423;1274;143126;-70
2022/11/01 12:41:30;;;;;;;24.40;20.10;;;;;;;10.10;94.78;99525.25;420317;1275;142821;-70
2022/11/01 12:51:42;;;;;;;26.90;22.40;;;;;;;10.20;95.06;99537.59;420351;1277;210523;-69
2022/11/01 13:01:56;;;;;;;26.70;21.80;;;;;;;10.26;95.52;99554.58;419567;1283;158618;-69
2022/11/01 13:12:09;;;;;;;26.50;20.00;;;;;;;10.30;96.04;99553.63;420725;1277;143196;-68
2022/11/01 13:22:23;;;;;;;28.20;22.00;;;;;;;10.49;96.39;99546.52;419376;1281;143907;-69
2022/11/01 13:32:35;;;;;;;25.00;21.20;;;;;;;10.60;96.50;99545.97;419663;1283;155089;-69
2022/11/01 13:42:44;;;;;;;22.90;18.00;;;;;;;10.75;96.61;99548.14;420663;1283;142892;-68
2022/11/01 13:52:57;;;;;;;21.10;16.90;;;;;;;10.89;96.40;99539.52;427277;1283;142941;-68
2022/11/01 14:03:18;;;;;;;16.50;14.70;;;;;;;11.00;96.30;99543.38;421271;1277;143532;-67
2022/11/01 14:13:39;;;;;;;19.80;17.80;;;;;;;11.03;96.08;99547.01;429471;1277;143459;-68
2022/11/01 14:23:50;;;;;;;17.50;15.20;;;;;;;11.08;96.30;99540.42;419295;1277;142001;-68
2022/11/01 14:33:56;;;;;;;17.70;14.80;;;;;;;11.11;96.16;99542.15;420779;1277;143501;-69
2022/11/01 14:44:11;;;;;;;21.00;17.60;;;;;;;11.06;96.16;99546.48;420808;1277;143717;-68
2022/11/01 14:54:23;;;;;;;19.80;17.80;;;;;;;11.03;96.18;99544.89;419234;1275;143203;-67
2022/11/01 15:04:31;;;;;;;20.40;17.10;;;;;;;10.92;96.17;99547.80;432657;1284;142013;-67
2022/11/01 15:14:40;;;;;;;20.40;17.90;;;;;;;10.73;96.17;99552.13;435180;1276;143011;-68
2022/11/01 15:24:48;;;;;;;19.80;17.30;;;;;;;10.46;96.26;99554.20;435838;1284;143139;-67
2022/11/01 15:34:56;;;;;;;18.30;15.90;;;;;;;10.18;96.55;99572.07;435967;1290;142953;-69
2022/11/01 15:45:19;;;;;;;20.10;16.80;;;;;;;9.87;96.60;99573.39;435234;1283;143709;-67
2022/11/01 15:55:28;;;;;;;20.50;18.40;;;;;;;9.55;97.15;99575.13;432599;1284;142068;-67
2022/11/01 16:05:37;;;;;;;26.30;19.30;;;;;;;9.36;97.45;99583.80;435239;1284;142451;-69
2022/11/01 16:16:00;;;;;;;30.30;24.10;;;;;;;9.18;97.41;99590.06;435993;1291;144230;-68
2022/11/01 16:26:08;;;;;;;29.00;23.20;;;;;;;9.00;97.49;99595.64;435395;1284;143480;-68
2022/11/01 16:36:40;;;;;;;29.70;24.20;;;;;;;8.85;97.61;99606.96;426132;1260;142639;-68
2022/11/01 16:46:46;;;;;;;28.70;25.60;;;;;;;8.72;97.88;99610.12;419980;1275;142554;-67
2022/11/01 16:56:54;;;;;;;80.80;60.90;;;;;;;8.49;97.77;99608.73;419032;1274;185656;-67
2022/11/01 17:07:00;;;;;;;67.80;47.50;;;;;;;8.40;98.43;99620.73;420697;1274;143202;-67
2022/11/01 17:17:11;;;;;;;59.30;43.90;;;;;;;8.28;98.67;99632.84;419813;1274;144255;-69
2022/11/01 17:27:17;;;;;;;40.90;32.20;;;;;;;8.10;98.39;99640.13;418895;1274;142585;-68
2022/11/01 17:37:25;;;;;;;61.70;48.30;;;;;;;7.92;98.65;99639.67;420025;1274;141515;-69
2022/11/01 17:47:31;;;;;;;67.30;48.70;;;;;;;7.80;98.81;99632.05;421125;1282;146725;-69
2022/11/01 17:57:36;;;;;;;65.00;47.90;;;;;;;7.71;99.10;99628.36;421178;1281;141669;-69
2022/11/01 18:07:47;;;;;;;69.10;52.60;;;;;;;7.57;98.84;99630.10;421190;1281;141978;-69
2022/11/01 18:18:06;;;;;;;83.40;65.00;;;;;;;7.49;99.04;99635.38;420933;1281;142916;-69
2022/11/01 18:28:16;;;;;;;93.60;69.60;;;;;;;7.47;99.02;99633.39;422032;1281;142737;-70
2022/11/01 18:38:28;;;;;;;126.00;85.40;;;;;;;7.50;99.40;99636.17;421398;1281;141462;-69
2022/11/01 18:48:35;;;;;;;131.70;86.60;;;;;;;7.52;99.77;99635.03;421380;1278;210207;-69
2022/11/01 18:58:41;;;;;;;149.90;93.70;;;;;;;7.46;99.67;99633.44;421895;1282;143006;-70
2022/11/01 19:08:52;;;;;;;168.80;115.10;;;;;;;7.48;99.99;99632.31;421198;1274;142309;-69
2022/11/01 19:18:59;;;;;;;189.70;122.50;;;;;;;7.55;100.00;99631.22;421284;1279;141869;-69
2022/11/01 19:29:15;;;;;;;160.80;101.50;;;;;;;7.62;100.00;99640.29;421567;1281;143741;-70
2022/11/01 19:39:31;;;;;;;188.50;113.60;;;;;;;7.59;100.00;99638.91;420349;1281;142113;-73
2022/11/01 19:49:39;;;;;;;174.90;118.40;;;;;;;7.58;100.00;99639.98;420340;1281;143265;-68
2022/11/01 19:59:45;;;;;;;173.10;119.40;;;;;;;7.53;100.00;99645.80;419601;1281;144521;-69
2022/11/01 20:09:52;;;;;;;161.20;112.30;;;;;;;7.46;100.00;99655.89;421954;1281;142749;-67
2022/11/01 20:20:03;;;;;;;126.40;95.80;;;;;;;7.39;100.00;99661.31;420491;1274;144881;-67
2022/11/01 20:30:11;;;;;;;114.70;88.50;;;;;;;7.34;100.00;99665.18;419539;1281;142154;-68
2022/11/01 20:40:20;;;;;;;102.40;79.50;;;;;;;7.41;100.00;99669.89;421487;1275;200947;-67
2022/11/01 20:50:26;;;;;;;94.20;76.70;;;;;;;7.52;100.00;99677.89;419635;1281;141895;-67
2022/11/01 21:00:32;;;;;;;78.80;63.80;;;;;;;7.66;100.00;99679.66;422021;1274;143729;-68
2022/11/01 21:10:40;;;;;;;90.50;73.40;;;;;;;7.79;100.00;99676.21;420637;1281;144453;-67
2022/11/01 21:20:48;;;;;;;93.00;74.80;;;;;;;7.90;100.00;99682.29;420850;1281;142642;-67
2022/11/01 21:30:54;;;;;;;87.20;71.60;;;;;;;7.99;100.00;99686.89;421240;1274;142874;-68
2022/11/01 21:41:00;;;;;;;82.90;64.70;;;;;;;8.03;100.00;99688.60;419984;1281;141934;-66
2022/11/01 21:51:07;;;;;;;80.00;66.20;;;;;;;8.00;100.00;99693.98;420644;1274;143151;-68
2022/11/01 22:01:12;;;;;;;67.20;56.10;;;;;;;7.86;100.00;99690.98;420333;1281;142109;-67
2022/11/01 22:11:18;;;;;;;68.40;54.70;;;;;;;7.68;100.00;99699.39;419961;1281;145470;-67
2022/11/01 22:21:28;;;;;;;71.70;58.00;;;;;;;7.58;100.00;99705.14;419498;1281;197039;-68
2022/11/01 22:31:34;;;;;;;62.10;43.00;;;;;;;7.50;100.00;99708.27;419952;1281;143159;-69
2022/11/01 22:41:41;;;;;;;53.10;43.80;;;;;;;7.58;100.00;99700.60;419522;1281;189121;-67
2022/11/01 22:51:50;;;;;;;49.90;36.70;;;;;;;7.66;100.00;99704.92;419753;1281;143879;-68
2022/11/01 23:02:01;;;;;;;49.40;38.60;;;;;;;7.76;100.00;99700.40;420402;1283;147181;-67
2022/11/01 23:22:47;;;;;;;60.70;38.30;;;;;;;7.94;100.00;99713.98;420168;1281;142346;-67
2022/11/01 23:32:53;;;;;;;45.60;34.00;;;;;;;8.03;100.00;99705.86;420236;1281;142545;-68
2022/11/01 23:42:59;;;;;;;40.70;31.10;;;;;;;8.24;100.00;99697.45;420441;1282;142554;-69
2022/11/01 23:53:09;;;;;;;36.60;30.00;;;;;;;8.64;100.00;99698.84;422577;1281;144010;-68
